sensor_id;sensor_type;location;lat;lon;timestamp;temperature;humidity
19622;DHT22;9958;33.196;-97.114;2022-12-07T00:01:28;18.70;99.90
19622;DHT22;9958;33.196;-97.114;2022-12-07T00:04:01;18.70;99.90
19622;DHT22;9958;33.196;-97.114;2022-12-07T00:06:33;18.60;99.90
19622;DHT22;9958;33.196;-97.114;2022-12-07T00:09:02;18.50;99.90
19622;DHT22;9958;33.196;-97.114;2022-12-07T00:11:31;18.40;99.90
19622;DHT22;9958;33.196;-97.114;2022-12-07T00:14:02;18.40;99.90
19622;DHT22;9958;33.196;-97.114;2022-12-07T00:16:32;18.30;99.90
19622;DHT22;9958;33.196;-97.114;2022-12-07T00:19:02;18.30;99.90
19622;DHT22;9958;33.196;-97.114;2022-12-07T00:21:31;18.20;99.90
19622;DHT22;9958;33.196;-97.114;2022-12-07T00:24:01;18.10;99.90
19622;DHT22;9958;33.196;-97.114;2022-12-07T00:26:31;18.10;99.90
19622;DHT22;9958;33.196;-97.114;2022-12-07T00:29:00;18.10;99.90
19622;DHT22;9958;33.196;-97.114;2022-12-07T00:31:30;18.00;99.90
19622;DHT22;9958;33.196;-97.114;2022-12-07T00:34:01;18.00;99.90
19622;DHT22;9958;33.196;-97.114;2022-12-07T00:36:29;18.00;99.90
19622;DHT22;9958;33.196;-97.114;2022-12-07T00:38:59;17.90;99.90
19622;DHT22;9958;33.196;-97.114;2022-12-07T00:41:28;17.90;99.90
19622;DHT22;9958;33.196;-97.114;2022-12-07T00:43:57;17.90;99.90
19622;DHT22;9958;33.196;-97.114;2022-12-07T00:46:26;17.80;99.90
19622;DHT22;9958;33.196;-97.114;2022-12-07T00:48:54;17.80;99.90
19622;DHT22;9958;33.196;-97.114;2022-12-07T00:51:25;17.80;99.90
19622;DHT22;9958;33.196;-97.114;2022-12-07T00:53:53;17.80;99.90
19622;DHT22;9958;33.196;-97.114;2022-12-07T00:56:23;17.80;99.90
19622;DHT22;9958;33.196;-97.114;2022-12-07T00:58:52;17.70;99.90
19622;DHT22;9958;33.196;-97.114;2022-12-07T01:01:22;17.70;99.90
19622;DHT22;9958;33.196;-97.114;2022-12-07T01:03:51;17.70;99.90
19622;DHT22;9958;33.196;-97.114;2022-12-07T01:06:21;17.60;99.90
19622;DHT22;9958;33.196;-97.114;2022-12-07T01:08:51;17.60;99.90
19622;DHT22;9958;33.196;-97.114;2022-12-07T01:11:21;17.50;99.90
19622;DHT22;9958;33.196;-97.114;2022-12-07T01:13:51;17.50;99.90
19622;DHT22;9958;33.196;-97.114;2022-12-07T01:16:20;17.40;99.90
19622;DHT22;9958;33.196;-97.114;2022-12-07T01:18:50;17.40;99.90
19622;DHT22;9958;33.196;-97.114;2022-12-07T01:21:20;17.40;99.90
19622;DHT22;9958;33.196;-97.114;2022-12-07T01:23:50;17.40;99.90
19622;DHT22;9958;33.196;-97.114;2022-12-07T01:26:21;17.40;99.90
19622;DHT22;9958;33.196;-97.114;2022-12-07T01:28:50;17.30;99.90
19622;DHT22;9958;33.196;-97.114;2022-12-07T01:31:22;17.30;99.90
19622;DHT22;9958;33.196;-97.114;2022-12-07T01:33:52;17.30;99.90
19622;DHT22;9958;33.196;-97.114;2022-12-07T01:36:24;17.20;99.90
19622;DHT22;9958;33.196;-97.114;2022-12-07T01:38:55;17.30;99.90
19622;DHT22;9958;33.196;-97.114;2022-12-07T01:41:26;17.20;99.90
19622;DHT22;9958;33.196;-97.114;2022-12-07T01:44:19;17.20;99.90
19622;DHT22;9958;33.196;-97.114;2022-12-07T01:46:48;17.20;99.90
19622;DHT22;9958;33.196;-97.114;2022-12-07T01:49:21;17.20;99.90
19622;DHT22;9958;33.196;-97.114;2022-12-07T01:51:52;17.20;99.90
19622;DHT22;9958;33.196;-97.114;2022-12-07T01:54:22;17.10;99.90
19622;DHT22;9958;33.196;-97.114;2022-12-07T01:56:52;17.10;99.90
19622;DHT22;9958;33.196;-97.114;2022-12-07T01:59:23;17.10;99.90
19622;DHT22;9958;33.196;-97.114;2022-12-07T02:01:53;17.10;99.90
19622;DHT22;9958;33.196;-97.114;2022-12-07T02:04:23;17.10;99.90
19622;DHT22;9958;33.196;-97.114;2022-12-07T02:06:52;17.10;99.90
19622;DHT22;9958;33.196;-97.114;2022-12-07T02:09:23;17.10;99.90
19622;DHT22;9958;33.196;-97.114;2022-12-07T02:11:52;17.00;99.90
19622;DHT22;9958;33.196;-97.114;2022-12-07T02:14:20;17.00;99.90
19622;DHT22;9958;33.196;-97.114;2022-12-07T02:16:59;17.00;99.90
19622;DHT22;9958;33.196;-97.114;2022-12-07T02:20:11;17.00;99.90
19622;DHT22;9958;33.196;-97.114;2022-12-07T02:23:11;16.90;99.90
19622;DHT22;9958;33.196;-97.114;2022-12-07T02:29:13;16.90;99.90
19622;DHT22;9958;33.196;-97.114;2022-12-07T02:31:46;16.90;99.90
19622;DHT22;9958;33.196;-97.114;2022-12-07T02:34:22;16.90;99.90
19622;DHT22;9958;33.196;-97.114;2022-12-07T02:36:55;16.80;99.90
19622;DHT22;9958;33.196;-97.114;2022-12-07T02:39:31;16.80;99.90
19622;DHT22;9958;33.196;-97.114;2022-12-07T02:42:07;16.70;99.90
19622;DHT22;9958;33.196;-97.114;2022-12-07T02:44:40;16.70;99.90
19622;DHT22;9958;33.196;-97.114;2022-12-07T02:47:12;16.70;99.90
19622;DHT22;9958;33.196;-97.114;2022-12-07T02:49:42;16.70;99.90
19622;DHT22;9958;33.196;-97.114;2022-12-07T02:52:11;16.70;99.90
19622;DHT22;9958;33.196;-97.114;2022-12-07T02:54:39;16.70;99.90
19622;DHT22;9958;33.196;-97.114;2022-12-07T02:57:35;16.60;99.90
19622;DHT22;9958;33.196;-97.114;2022-12-07T03:00:12;16.70;99.90
19622;DHT22;9958;33.196;-97.114;2022-12-07T03:02:50;16.60;99.90
19622;DHT22;9958;33.196;-97.114;2022-12-07T03:05:45;16.60;99.90
19622;DHT22;9958;33.196;-97.114;2022-12-07T03:08:24;16.60;99.90
19622;DHT22;9958;33.196;-97.114;2022-12-07T03:10:59;16.60;99.90
19622;DHT22;9958;33.196;-97.114;2022-12-07T03:13:33;16.60;99.90
19622;DHT22;9958;33.196;-97.114;2022-12-07T03:16:09;16.60;99.90
19622;DHT22;9958;33.196;-97.114;2022-12-07T03:18:44;16.50;99.90
19622;DHT22;9958;33.196;-97.114;2022-12-07T03:21:16;16.50;99.90
19622;DHT22;9958;33.196;-97.114;2022-12-07T03:23:48;16.50;99.90
19622;DHT22;9958;33.196;-97.114;2022-12-07T03:26:20;16.40;99.90
19622;DHT22;9958;33.196;-97.114;2022-12-07T03:28:54;16.40;99.90
19622;DHT22;9958;33.196;-97.114;2022-12-07T03:31:28;16.40;99.90
19622;DHT22;9958;33.196;-97.114;2022-12-07T03:33:59;16.40;99.90
19622;DHT22;9958;33.196;-97.114;2022-12-07T03:36:34;16.40;99.90
19622;DHT22;9958;33.196;-97.114;2022-12-07T03:39:13;16.40;99.90
19622;DHT22;9958;33.196;-97.114;2022-12-07T03:41:45;16.40;99.90
19622;DHT22;9958;33.196;-97.114;2022-12-07T03:44:15;16.30;99.90
19622;DHT22;9958;33.196;-97.114;2022-12-07T03:46:50;16.30;99.90
19622;DHT22;9958;33.196;-97.114;2022-12-07T03:49:25;16.30;99.90
19622;DHT22;9958;33.196;-97.114;2022-12-07T03:51:59;16.30;99.90
19622;DHT22;9958;33.196;-97.114;2022-12-07T03:54:33;16.30;99.90
19622;DHT22;9958;33.196;-97.114;2022-12-07T03:57:03;16.20;99.90
19622;DHT22;9958;33.196;-97.114;2022-12-07T03:59:33;16.20;99.90
19622;DHT22;9958;33.196;-97.114;2022-12-07T04:02:06;16.20;99.90
19622;DHT22;9958;33.196;-97.114;2022-12-07T04:04:35;16.20;99.90
19622;DHT22;9958;33.196;-97.114;2022-12-07T04:07:03;16.10;99.90
19622;DHT22;9958;33.196;-97.114;2022-12-07T04:09:31;16.10;99.90
19622;DHT22;9958;33.196;-97.114;2022-12-07T04:12:00;16.00;99.90
19622;DHT22;9958;33.196;-97.114;2022-12-07T04:14:28;15.90;99.90
19622;DHT22;9958;33.196;-97.114;2022-12-07T04:16:57;15.90;99.90
19622;DHT22;9958;33.196;-97.114;2022-12-07T04:19:29;15.90;99.90
19622;DHT22;9958;33.196;-97.114;2022-12-07T04:21:59;16.00;99.90
19622;DHT22;9958;33.196;-97.114;2022-12-07T04:24:28;15.90;99.90
19622;DHT22;9958;33.196;-97.114;2022-12-07T04:26:56;16.00;99.90
19622;DHT22;9958;33.196;-97.114;2022-12-07T04:29:24;16.00;99.90
19622;DHT22;9958;33.196;-97.114;2022-12-07T04:31:53;16.00;99.90
19622;DHT22;9958;33.196;-97.114;2022-12-07T04:34:21;16.00;99.90
19622;DHT22;9958;33.196;-97.114;2022-12-07T04:36:51;15.90;99.90
19622;DHT22;9958;33.196;-97.114;2022-12-07T04:39:22;15.90;99.90
19622;DHT22;9958;33.196;-97.114;2022-12-07T04:41:51;15.90;99.90
19622;DHT22;9958;33.196;-97.114;2022-12-07T04:44:20;15.90;99.90
19622;DHT22;9958;33.196;-97.114;2022-12-07T04:46:49;15.80;99.90
19622;DHT22;9958;33.196;-97.114;2022-12-07T04:49:17;15.80;99.90
19622;DHT22;9958;33.196;-97.114;2022-12-07T04:51:46;15.80;99.90
19622;DHT22;9958;33.196;-97.114;2022-12-07T04:54:17;15.80;99.90
19622;DHT22;9958;33.196;-97.114;2022-12-07T04:56:45;15.70;99.90
19622;DHT22;9958;33.196;-97.114;2022-12-07T04:59:15;15.70;99.90
19622;DHT22;9958;33.196;-97.114;2022-12-07T05:01:44;15.70;99.90
19622;DHT22;9958;33.196;-97.114;2022-12-07T05:04:12;15.70;99.90
19622;DHT22;9958;33.196;-97.114;2022-12-07T05:06:42;15.70;99.90
19622;DHT22;9958;33.196;-97.114;2022-12-07T05:09:10;15.60;99.90
19622;DHT22;9958;33.196;-97.114;2022-12-07T05:11:40;15.60;99.90
19622;DHT22;9958;33.196;-97.114;2022-12-07T05:14:12;15.50;99.90
19622;DHT22;9958;33.196;-97.114;2022-12-07T05:16:41;15.50;99.90
19622;DHT22;9958;33.196;-97.114;2022-12-07T05:19:09;15.40;99.90
19622;DHT22;9958;33.196;-97.114;2022-12-07T05:21:38;15.40;99.90
19622;DHT22;9958;33.196;-97.114;2022-12-07T05:24:08;15.40;99.90
19622;DHT22;9958;33.196;-97.114;2022-12-07T05:26:39;15.30;99.90
19622;DHT22;9958;33.196;-97.114;2022-12-07T05:29:10;15.30;99.90
19622;DHT22;9958;33.196;-97.114;2022-12-07T05:31:38;15.20;99.90
19622;DHT22;9958;33.196;-97.114;2022-12-07T05:34:07;15.20;99.90
19622;DHT22;9958;33.196;-97.114;2022-12-07T05:36:35;15.10;99.90
19622;DHT22;9958;33.196;-97.114;2022-12-07T05:39:04;15.20;99.90
19622;DHT22;9958;33.196;-97.114;2022-12-07T05:41:32;15.10;99.90
19622;DHT22;9958;33.196;-97.114;2022-12-07T05:44:19;15.10;99.90
19622;DHT22;9958;33.196;-97.114;2022-12-07T05:46:47;15.00;99.90
19622;DHT22;9958;33.196;-97.114;2022-12-07T05:49:16;15.00;99.90
19622;DHT22;9958;33.196;-97.114;2022-12-07T05:51:44;14.90;99.90
19622;DHT22;9958;33.196;-97.114;2022-12-07T05:54:12;14.90;99.90
19622;DHT22;9958;33.196;-97.114;2022-12-07T05:56:41;14.90;99.90
19622;DHT22;9958;33.196;-97.114;2022-12-07T05:59:09;14.80;99.90
19622;DHT22;9958;33.196;-97.114;2022-12-07T06:01:55;14.80;99.90
19622;DHT22;9958;33.196;-97.114;2022-12-07T06:04:24;14.80;99.90
19622;DHT22;9958;33.196;-97.114;2022-12-07T06:06:53;14.80;99.90
19622;DHT22;9958;33.196;-97.114;2022-12-07T06:09:23;14.80;99.90
19622;DHT22;9958;33.196;-97.114;2022-12-07T06:11:52;14.80;99.90
19622;DHT22;9958;33.196;-97.114;2022-12-07T06:14:37;14.80;99.90
19622;DHT22;9958;33.196;-97.114;2022-12-07T06:17:07;14.80;99.90
19622;DHT22;9958;33.196;-97.114;2022-12-07T06:19:36;14.80;99.90
19622;DHT22;9958;33.196;-97.114;2022-12-07T06:22:04;14.80;99.90
19622;DHT22;9958;33.196;-97.114;2022-12-07T06:24:33;14.70;99.90
19622;DHT22;9958;33.196;-97.114;2022-12-07T06:27:02;14.70;99.90
19622;DHT22;9958;33.196;-97.114;2022-12-07T06:29:30;14.70;99.90
19622;DHT22;9958;33.196;-97.114;2022-12-07T06:31:58;14.70;99.90
19622;DHT22;9958;33.196;-97.114;2022-12-07T06:34:28;14.70;99.90
19622;DHT22;9958;33.196;-97.114;2022-12-07T06:36:57;14.70;99.90
19622;DHT22;9958;33.196;-97.114;2022-12-07T06:39:26;14.70;99.90
19622;DHT22;9958;33.196;-97.114;2022-12-07T06:41:54;14.70;99.90
19622;DHT22;9958;33.196;-97.114;2022-12-07T06:44:23;14.70;99.90
19622;DHT22;9958;33.196;-97.114;2022-12-07T06:46:52;14.60;99.90
19622;DHT22;9958;33.196;-97.114;2022-12-07T06:49:20;14.60;99.90
19622;DHT22;9958;33.196;-97.114;2022-12-07T06:51:50;14.60;99.90
19622;DHT22;9958;33.196;-97.114;2022-12-07T06:54:19;14.50;99.90
19622;DHT22;9958;33.196;-97.114;2022-12-07T06:56:47;14.50;99.90
19622;DHT22;9958;33.196;-97.114;2022-12-07T06:59:15;14.50;99.90
19622;DHT22;9958;33.196;-97.114;2022-12-07T07:01:44;14.50;99.90
19622;DHT22;9958;33.196;-97.114;2022-12-07T07:04:12;14.50;99.90
19622;DHT22;9958;33.196;-97.114;2022-12-07T07:06:40;14.50;99.90
19622;DHT22;9958;33.196;-97.114;2022-12-07T07:09:10;14.50;99.90
19622;DHT22;9958;33.196;-97.114;2022-12-07T07:11:38;14.50;99.90
19622;DHT22;9958;33.196;-97.114;2022-12-07T07:14:07;14.40;99.90
19622;DHT22;9958;33.196;-97.114;2022-12-07T07:16:35;14.30;99.90
19622;DHT22;9958;33.196;-97.114;2022-12-07T07:19:03;14.30;99.90
19622;DHT22;9958;33.196;-97.114;2022-12-07T07:21:31;14.30;99.90
19622;DHT22;9958;33.196;-97.114;2022-12-07T07:24:00;14.30;99.90
19622;DHT22;9958;33.196;-97.114;2022-12-07T07:26:29;14.30;99.90
19622;DHT22;9958;33.196;-97.114;2022-12-07T07:28:58;14.30;99.90
19622;DHT22;9958;33.196;-97.114;2022-12-07T07:31:26;14.30;99.90
19622;DHT22;9958;33.196;-97.114;2022-12-07T07:33:54;14.30;99.90
19622;DHT22;9958;33.196;-97.114;2022-12-07T07:36:23;14.30;99.90
19622;DHT22;9958;33.196;-97.114;2022-12-07T07:38:51;14.20;99.90
19622;DHT22;9958;33.196;-97.114;2022-12-07T07:41:19;14.20;99.90
19622;DHT22;9958;33.196;-97.114;2022-12-07T07:43:49;14.20;99.90
19622;DHT22;9958;33.196;-97.114;2022-12-07T07:46:17;14.20;99.90
19622;DHT22;9958;33.196;-97.114;2022-12-07T07:48:46;14.20;99.90
19622;DHT22;9958;33.196;-97.114;2022-12-07T07:51:14;14.10;99.90
19622;DHT22;9958;33.196;-97.114;2022-12-07T07:53:42;14.10;99.90
19622;DHT22;9958;33.196;-97.114;2022-12-07T07:56:11;14.10;99.90
19622;DHT22;9958;33.196;-97.114;2022-12-07T07:58:39;14.10;99.90
19622;DHT22;9958;33.196;-97.114;2022-12-07T08:01:09;14.10;99.90
19622;DHT22;9958;33.196;-97.114;2022-12-07T08:03:37;14.00;99.90
19622;DHT22;9958;33.196;-97.114;2022-12-07T08:06:06;14.10;99.90
19622;DHT22;9958;33.196;-97.114;2022-12-07T08:08:34;14.00;99.90
19622;DHT22;9958;33.196;-97.114;2022-12-07T08:11:05;14.00;99.90
19622;DHT22;9958;33.196;-97.114;2022-12-07T08:13:34;14.00;99.90
19622;DHT22;9958;33.196;-97.114;2022-12-07T08:16:04;14.00;99.90
19622;DHT22;9958;33.196;-97.114;2022-12-07T08:18:37;14.00;99.90
19622;DHT22;9958;33.196;-97.114;2022-12-07T08:21:07;14.00;99.90
19622;DHT22;9958;33.196;-97.114;2022-12-07T08:23:35;13.90;99.90
19622;DHT22;9958;33.196;-97.114;2022-12-07T08:26:04;13.90;99.90
19622;DHT22;9958;33.196;-97.114;2022-12-07T08:28:33;13.90;99.90
19622;DHT22;9958;33.196;-97.114;2022-12-07T08:31:02;13.90;99.90
19622;DHT22;9958;33.196;-97.114;2022-12-07T08:33:31;13.90;99.90
19622;DHT22;9958;33.196;-97.114;2022-12-07T08:36:03;13.90;99.90
19622;DHT22;9958;33.196;-97.114;2022-12-07T08:38:32;13.90;99.90
19622;DHT22;9958;33.196;-97.114;2022-12-07T08:41:00;13.90;99.90
19622;DHT22;9958;33.196;-97.114;2022-12-07T08:43:28;13.90;99.90
19622;DHT22;9958;33.196;-97.114;2022-12-07T08:46:03;13.90;99.90
19622;DHT22;9958;33.196;-97.114;2022-12-07T08:48:37;13.90;99.90
19622;DHT22;9958;33.196;-97.114;2022-12-07T08:51:07;13.90;99.90
19622;DHT22;9958;33.196;-97.114;2022-12-07T08:53:37;13.90;99.90
19622;DHT22;9958;33.196;-97.114;2022-12-07T08:56:07;13.90;99.90
19622;DHT22;9958;33.196;-97.114;2022-12-07T08:58:36;13.90;99.90
19622;DHT22;9958;33.196;-97.114;2022-12-07T09:01:05;13.90;99.90
19622;DHT22;9958;33.196;-97.114;2022-12-07T09:03:33;13.90;99.90
19622;DHT22;9958;33.196;-97.114;2022-12-07T09:06:02;13.90;99.90
19622;DHT22;9958;33.196;-97.114;2022-12-07T09:08:36;13.90;99.90
19622;DHT22;9958;33.196;-97.114;2022-12-07T09:11:06;13.90;99.90
19622;DHT22;9958;33.196;-97.114;2022-12-07T09:13:34;13.90;99.90
19622;DHT22;9958;33.196;-97.114;2022-12-07T09:16:03;13.90;99.90
19622;DHT22;9958;33.196;-97.114;2022-12-07T09:18:31;13.90;99.90
19622;DHT22;9958;33.196;-97.114;2022-12-07T09:21:00;13.90;99.90
19622;DHT22;9958;33.196;-97.114;2022-12-07T09:23:28;13.90;99.90
19622;DHT22;9958;33.196;-97.114;2022-12-07T09:26:01;13.90;99.90
19622;DHT22;9958;33.196;-97.114;2022-12-07T09:28:31;13.90;99.90
19622;DHT22;9958;33.196;-97.114;2022-12-07T09:30:59;13.90;99.90
19622;DHT22;9958;33.196;-97.114;2022-12-07T09:33:28;13.90;99.90
19622;DHT22;9958;33.196;-97.114;2022-12-07T09:35:56;13.80;99.90
19622;DHT22;9958;33.196;-97.114;2022-12-07T09:38:24;13.90;99.90
19622;DHT22;9958;33.196;-97.114;2022-12-07T09:40:54;13.80;99.90
19622;DHT22;9958;33.196;-97.114;2022-12-07T09:43:25;13.80;99.90
19622;DHT22;9958;33.196;-97.114;2022-12-07T09:45:55;13.80;99.90
19622;DHT22;9958;33.196;-97.114;2022-12-07T09:48:33;13.80;99.90
19622;DHT22;9958;33.196;-97.114;2022-12-07T09:51:10;13.80;99.90
19622;DHT22;9958;33.196;-97.114;2022-12-07T09:53:42;13.80;99.90
19622;DHT22;9958;33.196;-97.114;2022-12-07T09:56:12;13.80;99.90
19622;DHT22;9958;33.196;-97.114;2022-12-07T09:58:43;13.80;99.90
19622;DHT22;9958;33.196;-97.114;2022-12-07T10:01:14;13.70;99.90
19622;DHT22;9958;33.196;-97.114;2022-12-07T10:03:48;13.80;99.90
19622;DHT22;9958;33.196;-97.114;2022-12-07T10:06:17;13.80;99.90
19622;DHT22;9958;33.196;-97.114;2022-12-07T10:08:46;13.80;99.90
19622;DHT22;9958;33.196;-97.114;2022-12-07T10:11:14;13.80;99.90
19622;DHT22;9958;33.196;-97.114;2022-12-07T10:13:45;13.70;99.90
19622;DHT22;9958;33.196;-97.114;2022-12-07T10:16:35;13.70;99.90
19622;DHT22;9958;33.196;-97.114;2022-12-07T10:19:21;13.60;99.90
19622;DHT22;9958;33.196;-97.114;2022-12-07T10:22:09;13.60;99.90
19622;DHT22;9958;33.196;-97.114;2022-12-07T10:24:38;13.50;99.90
19622;DHT22;9958;33.196;-97.114;2022-12-07T10:27:19;13.50;99.90
19622;DHT22;9958;33.196;-97.114;2022-12-07T10:29:50;13.50;99.90
19622;DHT22;9958;33.196;-97.114;2022-12-07T10:32:31;13.40;99.90
19622;DHT22;9958;33.196;-97.114;2022-12-07T10:35:20;13.40;99.90
19622;DHT22;9958;33.196;-97.114;2022-12-07T10:37:50;13.40;99.90
19622;DHT22;9958;33.196;-97.114;2022-12-07T10:40:31;13.40;99.90
19622;DHT22;9958;33.196;-97.114;2022-12-07T10:43:06;13.40;99.90
19622;DHT22;9958;33.196;-97.114;2022-12-07T10:46:05;13.40;99.90
19622;DHT22;9958;33.196;-97.114;2022-12-07T10:48:40;13.40;99.90
19622;DHT22;9958;33.196;-97.114;2022-12-07T10:51:15;13.40;99.90
19622;DHT22;9958;33.196;-97.114;2022-12-07T10:53:54;13.40;99.90
19622;DHT22;9958;33.196;-97.114;2022-12-07T10:56:45;13.40;99.90
19622;DHT22;9958;33.196;-97.114;2022-12-07T11:02:26;13.40;99.90
19622;DHT22;9958;33.196;-97.114;2022-12-07T11:05:09;13.40;99.90
19622;DHT22;9958;33.196;-97.114;2022-12-07T11:07:50;13.40;99.90
19622;DHT22;9958;33.196;-97.114;2022-12-07T11:10:28;13.30;99.90
19622;DHT22;9958;33.196;-97.114;2022-12-07T11:13:21;13.30;99.90
19622;DHT22;9958;33.196;-97.114;2022-12-07T11:16:16;13.30;99.90
19622;DHT22;9958;33.196;-97.114;2022-12-07T11:19:03;13.30;99.90
19622;DHT22;9958;33.196;-97.114;2022-12-07T11:21:39;13.30;99.90
19622;DHT22;9958;33.196;-97.114;2022-12-07T11:24:15;13.30;99.90
19622;DHT22;9958;33.196;-97.114;2022-12-07T11:26:59;13.30;99.90
19622;DHT22;9958;33.196;-97.114;2022-12-07T11:29:43;13.30;99.90
19622;DHT22;9958;33.196;-97.114;2022-12-07T11:32:19;13.40;99.90
19622;DHT22;9958;33.196;-97.114;2022-12-07T11:34:57;13.40;99.90
19622;DHT22;9958;33.196;-97.114;2022-12-07T11:37:31;13.40;99.90
19622;DHT22;9958;33.196;-97.114;2022-12-07T11:40:02;13.40;99.90
19622;DHT22;9958;33.196;-97.114;2022-12-07T11:42:35;13.40;99.90
19622;DHT22;9958;33.196;-97.114;2022-12-07T11:45:13;13.40;99.90
19622;DHT22;9958;33.196;-97.114;2022-12-07T11:47:46;13.40;99.90
19622;DHT22;9958;33.196;-97.114;2022-12-07T11:50:26;13.40;99.90
19622;DHT22;9958;33.196;-97.114;2022-12-07T11:52:58;13.40;99.90
19622;DHT22;9958;33.196;-97.114;2022-12-07T11:55:32;13.40;99.90
19622;DHT22;9958;33.196;-97.114;2022-12-07T11:58:15;13.40;99.90
19622;DHT22;9958;33.196;-97.114;2022-12-07T12:00:48;13.40;99.90
19622;DHT22;9958;33.196;-97.114;2022-12-07T12:03:24;13.40;99.90
19622;DHT22;9958;33.196;-97.114;2022-12-07T12:05:58;13.30;99.90
19622;DHT22;9958;33.196;-97.114;2022-12-07T12:08:29;13.40;99.90
19622;DHT22;9958;33.196;-97.114;2022-12-07T12:11:05;13.40;99.90
19622;DHT22;9958;33.196;-97.114;2022-12-07T12:14:02;13.40;99.90
19622;DHT22;9958;33.196;-97.114;2022-12-07T12:19:35;13.40;99.90
19622;DHT22;9958;33.196;-97.114;2022-12-07T12:22:12;13.40;99.90
19622;DHT22;9958;33.196;-97.114;2022-12-07T12:24:43;13.40;99.90
19622;DHT22;9958;33.196;-97.114;2022-12-07T12:27:26;13.30;99.90
19622;DHT22;9958;33.196;-97.114;2022-12-07T12:29:57;13.30;99.90
19622;DHT22;9958;33.196;-97.114;2022-12-07T12:32:36;13.40;99.90
19622;DHT22;9958;33.196;-97.114;2022-12-07T12:35:28;13.30;99.90
19622;DHT22;9958;33.196;-97.114;2022-12-07T12:38:30;13.40;99.90
19622;DHT22;9958;33.196;-97.114;2022-12-07T12:41:00;13.40;99.90
19622;DHT22;9958;33.196;-97.114;2022-12-07T12:46:49;13.40;99.90
19622;DHT22;9958;33.196;-97.114;2022-12-07T12:52:52;13.40;99.90
19622;DHT22;9958;33.196;-97.114;2022-12-07T12:58:37;13.40;99.90
19622;DHT22;9958;33.196;-97.114;2022-12-07T13:01:32;13.40;99.90
19622;DHT22;9958;33.196;-97.114;2022-12-07T13:04:03;13.40;99.90
19622;DHT22;9958;33.196;-97.114;2022-12-07T13:06:35;13.40;99.90
19622;DHT22;9958;33.196;-97.114;2022-12-07T13:09:19;13.40;99.90
19622;DHT22;9958;33.196;-97.114;2022-12-07T13:12:03;13.50;99.90
19622;DHT22;9958;33.196;-97.114;2022-12-07T13:14:56;13.50;99.90
19622;DHT22;9958;33.196;-97.114;2022-12-07T13:20:56;13.50;99.90
19622;DHT22;9958;33.196;-97.114;2022-12-07T13:23:29;13.50;99.90
19622;DHT22;9958;33.196;-97.114;2022-12-07T13:26:16;13.50;99.90
19622;DHT22;9958;33.196;-97.114;2022-12-07T13:28:48;13.60;99.90
19622;DHT22;9958;33.196;-97.114;2022-12-07T13:31:30;13.60;99.90
19622;DHT22;9958;33.196;-97.114;2022-12-07T13:33:59;13.60;99.90
19622;DHT22;9958;33.196;-97.114;2022-12-07T13:36:30;13.60;99.90
19622;DHT22;9958;33.196;-97.114;2022-12-07T13:39:17;13.60;99.90
19622;DHT22;9958;33.196;-97.114;2022-12-07T13:41:50;13.60;99.90
19622;DHT22;9958;33.196;-97.114;2022-12-07T13:44:20;13.60;99.90
19622;DHT22;9958;33.196;-97.114;2022-12-07T13:47:00;13.60;99.90
19622;DHT22;9958;33.196;-97.114;2022-12-07T13:49:36;13.60;99.90
19622;DHT22;9958;33.196;-97.114;2022-12-07T13:52:15;13.60;99.90
19622;DHT22;9958;33.196;-97.114;2022-12-07T13:54:48;13.60;99.90
19622;DHT22;9958;33.196;-97.114;2022-12-07T13:57:17;13.50;99.90
19622;DHT22;9958;33.196;-97.114;2022-12-07T13:59:47;13.50;99.90
19622;DHT22;9958;33.196;-97.114;2022-12-07T14:02:20;13.60;99.90
19622;DHT22;9958;33.196;-97.114;2022-12-07T14:04:49;13.60;99.90
19622;DHT22;9958;33.196;-97.114;2022-12-07T14:07:24;13.60;99.90
19622;DHT22;9958;33.196;-97.114;2022-12-07T14:09:58;13.60;99.90
19622;DHT22;9958;33.196;-97.114;2022-12-07T14:12:27;13.60;99.90
19622;DHT22;9958;33.196;-97.114;2022-12-07T14:14:59;13.60;99.90
19622;DHT22;9958;33.196;-97.114;2022-12-07T14:17:28;13.70;99.90
19622;DHT22;9958;33.196;-97.114;2022-12-07T14:19:57;13.70;99.90
19622;DHT22;9958;33.196;-97.114;2022-12-07T14:22:28;13.70;99.90
19622;DHT22;9958;33.196;-97.114;2022-12-07T14:25:09;13.80;99.90
19622;DHT22;9958;33.196;-97.114;2022-12-07T14:27:46;13.70;99.90
19622;DHT22;9958;33.196;-97.114;2022-12-07T14:30:18;13.70;99.90
19622;DHT22;9958;33.196;-97.114;2022-12-07T14:32:50;13.70;99.90
19622;DHT22;9958;33.196;-97.114;2022-12-07T14:35:19;13.80;99.90
19622;DHT22;9958;33.196;-97.114;2022-12-07T14:37:48;13.80;99.90
19622;DHT22;9958;33.196;-97.114;2022-12-07T14:40:20;13.80;99.90
19622;DHT22;9958;33.196;-97.114;2022-12-07T14:42:51;13.80;99.90
19622;DHT22;9958;33.196;-97.114;2022-12-07T14:45:23;13.80;99.90
19622;DHT22;9958;33.196;-97.114;2022-12-07T14:47:51;13.90;99.90
19622;DHT22;9958;33.196;-97.114;2022-12-07T14:50:21;13.90;99.90
19622;DHT22;9958;33.196;-97.114;2022-12-07T14:52:53;13.90;99.90
19622;DHT22;9958;33.196;-97.114;2022-12-07T14:55:25;13.90;99.90
19622;DHT22;9958;33.196;-97.114;2022-12-07T14:57:54;13.90;99.90
19622;DHT22;9958;33.196;-97.114;2022-12-07T15:00:26;14.00;99.90
19622;DHT22;9958;33.196;-97.114;2022-12-07T15:02:55;14.00;99.90
19622;DHT22;9958;33.196;-97.114;2022-12-07T15:05:24;14.00;99.90
19622;DHT22;9958;33.196;-97.114;2022-12-07T15:07:52;14.10;99.90
19622;DHT22;9958;33.196;-97.114;2022-12-07T15:10:22;14.10;99.90
19622;DHT22;9958;33.196;-97.114;2022-12-07T15:12:50;14.10;99.90
19622;DHT22;9958;33.196;-97.114;2022-12-07T15:15:19;14.20;99.90
19622;DHT22;9958;33.196;-97.114;2022-12-07T15:17:49;14.20;99.90
19622;DHT22;9958;33.196;-97.114;2022-12-07T15:20:17;14.30;99.90
19622;DHT22;9958;33.196;-97.114;2022-12-07T15:22:45;14.30;99.90
19622;DHT22;9958;33.196;-97.114;2022-12-07T15:25:14;14.40;99.90
19622;DHT22;9958;33.196;-97.114;2022-12-07T15:27:43;14.50;99.90
19622;DHT22;9958;33.196;-97.114;2022-12-07T15:30:11;14.50;99.90
19622;DHT22;9958;33.196;-97.114;2022-12-07T15:32:40;14.60;99.90
19622;DHT22;9958;33.196;-97.114;2022-12-07T15:35:10;14.60;99.90
19622;DHT22;9958;33.196;-97.114;2022-12-07T15:37:38;14.60;99.90
19622;DHT22;9958;33.196;-97.114;2022-12-07T15:40:07;14.70;99.90
19622;DHT22;9958;33.196;-97.114;2022-12-07T15:42:36;14.70;99.90
19622;DHT22;9958;33.196;-97.114;2022-12-07T15:45:07;14.80;99.90
19622;DHT22;9958;33.196;-97.114;2022-12-07T15:47:36;14.90;99.90
19622;DHT22;9958;33.196;-97.114;2022-12-07T15:50:06;14.90;99.90
19622;DHT22;9958;33.196;-97.114;2022-12-07T15:52:37;15.00;99.90
19622;DHT22;9958;33.196;-97.114;2022-12-07T15:55:06;15.00;99.90
19622;DHT22;9958;33.196;-97.114;2022-12-07T15:57:36;15.00;99.90
19622;DHT22;9958;33.196;-97.114;2022-12-07T16:00:06;15.00;99.90
19622;DHT22;9958;33.196;-97.114;2022-12-07T16:02:36;15.00;99.90
19622;DHT22;9958;33.196;-97.114;2022-12-07T16:05:04;15.00;99.90
19622;DHT22;9958;33.196;-97.114;2022-12-07T16:07:33;15.10;99.90
19622;DHT22;9958;33.196;-97.114;2022-12-07T16:10:03;15.10;99.90